Cocoa, Florida
Current Conditions -  °F | °C
As of 7:58 PM on Friday 19 Dec 2014 (Local Time) from KCOF Reporting Station
Clear Clear  
Wind Chill: 63°   Ceiling: Unl
Heat Index: 63°   Visibility: 10mi
Dew Point: 58°   Wind: 5mph
Humidity: 84%   Direction: 10°N
Pressure: 30.09"   Gusts: NA
Location:  28.35°N, 80.73°W
Report Text: KCOF 200058Z AUTO 01004KT 10SM CLR 17/14 A3009 RMK AO2 SLP194 T01700143
Loading
Personal Weather Stations






























Interactive Weather Map New forecast layout! Learn more

10-Day Weather Forecast

Advertisements
Track Severe Weather on mobile